sensor_id;sensor_type;location;lat;lon;timestamp;P1;durP1;ratioP1;P2;durP2;ratioP2
62903;SDS011;49000;50.698;13.322;2024-02-15T00:00:00;0.63;;;0.37;;
62903;SDS011;49000;50.698;13.322;2024-02-15T00:02:28;0.70;;;0.40;;
62903;SDS011;49000;50.698;13.322;2024-02-15T00:04:53;0.40;;;0.40;;
62903;SDS011;49000;50.698;13.322;2024-02-15T00:07:19;0.97;;;0.23;;
62903;SDS011;49000;50.698;13.322;2024-02-15T00:09:47;0.73;;;0.40;;
62903;SDS011;49000;50.698;13.322;2024-02-15T00:12:13;0.60;;;0.40;;
62903;SDS011;49000;50.698;13.322;2024-02-15T00:14:38;0.67;;;0.30;;
62903;SDS011;49000;50.698;13.322;2024-02-15T00:17:04;1.53;;;0.40;;
62903;SDS011;49000;50.698;13.322;2024-02-15T00:19:29;0.53;;;0.40;;
62903;SDS011;49000;50.698;13.322;2024-02-15T00:21:55;0.23;;;0.23;;
62903;SDS011;49000;50.698;13.322;2024-02-15T00:24:21;0.60;;;0.30;;
62903;SDS011;49000;50.698;13.322;2024-02-15T00:26:47;0.53;;;0.30;;
62903;SDS011;49000;50.698;13.322;2024-02-15T00:29:13;0.67;;;0.40;;
62903;SDS011;49000;50.698;13.322;2024-02-15T00:31:38;0.60;;;0.30;;
62903;SDS011;49000;50.698;13.322;2024-02-15T00:34:04;0.93;;;0.30;;
62903;SDS011;49000;50.698;13.322;2024-02-15T00:36:30;0.40;;;0.30;;
62903;SDS011;49000;50.698;13.322;2024-02-15T00:38:57;0.30;;;0.30;;
62903;SDS011;49000;50.698;13.322;2024-02-15T00:41:23;0.27;;;0.20;;
62903;SDS011;49000;50.698;13.322;2024-02-15T00:43:48;1.70;;;0.30;;
62903;SDS011;49000;50.698;13.322;2024-02-15T00:46:15;0.60;;;0.20;;
62903;SDS011;49000;50.698;13.322;2024-02-15T00:48:41;0.57;;;0.27;;
62903;SDS011;49000;50.698;13.322;2024-02-15T00:51:07;0.40;;;0.20;;
62903;SDS011;49000;50.698;13.322;2024-02-15T00:53:32;0.70;;;0.23;;
62903;SDS011;49000;50.698;13.322;2024-02-15T00:55:58;0.33;;;0.33;;
62903;SDS011;49000;50.698;13.322;2024-02-15T00:58:24;0.40;;;0.30;;
62903;SDS011;49000;50.698;13.322;2024-02-15T01:00:51;0.40;;;0.23;;
62903;SDS011;49000;50.698;13.322;2024-02-15T01:03:18;0.47;;;0.20;;
62903;SDS011;49000;50.698;13.322;2024-02-15T01:05:44;0.20;;;0.20;;
62903;SDS011;49000;50.698;13.322;2024-02-15T01:08:10;0.70;;;0.20;;
62903;SDS011;49000;50.698;13.322;2024-02-15T01:10:36;0.53;;;0.30;;
62903;SDS011;49000;50.698;13.322;2024-02-15T01:13:02;0.50;;;0.40;;
62903;SDS011;49000;50.698;13.322;2024-02-15T01:15:27;0.60;;;0.40;;
62903;SDS011;49000;50.698;13.322;2024-02-15T01:17:53;0.27;;;0.20;;
62903;SDS011;49000;50.698;13.322;2024-02-15T01:20:19;1.43;;;0.40;;
62903;SDS011;49000;50.698;13.322;2024-02-15T01:22:46;0.67;;;0.30;;
62903;SDS011;49000;50.698;13.322;2024-02-15T01:25:11;0.73;;;0.50;;
62903;SDS011;49000;50.698;13.322;2024-02-15T01:27:38;0.50;;;0.37;;
62903;SDS011;49000;50.698;13.322;2024-02-15T01:30:04;0.40;;;0.37;;
62903;SDS011;49000;50.698;13.322;2024-02-15T01:32:29;0.43;;;0.40;;
62903;SDS011;49000;50.698;13.322;2024-02-15T01:34:55;0.97;;;0.63;;
62903;SDS011;49000;50.698;13.322;2024-02-15T01:37:21;1.53;;;0.50;;
62903;SDS011;49000;50.698;13.322;2024-02-15T01:39:47;3.03;;;0.60;;
62903;SDS011;49000;50.698;13.322;2024-02-15T01:42:12;1.67;;;0.27;;
62903;SDS011;49000;50.698;13.322;2024-02-15T01:44:39;0.40;;;0.40;;
62903;SDS011;49000;50.698;13.322;2024-02-15T01:47:05;0.97;;;0.30;;
62903;SDS011;49000;50.698;13.322;2024-02-15T01:49:31;0.80;;;0.30;;
62903;SDS011;49000;50.698;13.322;2024-02-15T01:51:57;0.40;;;0.33;;
62903;SDS011;49000;50.698;13.322;2024-02-15T01:54:25;0.33;;;0.20;;
62903;SDS011;49000;50.698;13.322;2024-02-15T01:56:52;0.30;;;0.30;;
62903;SDS011;49000;50.698;13.322;2024-02-15T01:59:19;0.50;;;0.23;;
62903;SDS011;49000;50.698;13.322;2024-02-15T02:01:47;0.30;;;0.30;;
62903;SDS011;49000;50.698;13.322;2024-02-15T02:04:13;0.40;;;0.40;;
62903;SDS011;49000;50.698;13.322;2024-02-15T02:06:40;1.37;;;0.30;;
62903;SDS011;49000;50.698;13.322;2024-02-15T02:09:06;0.30;;;0.30;;
62903;SDS011;49000;50.698;13.322;2024-02-15T02:11:37;0.20;;;0.20;;
62903;SDS011;49000;50.698;13.322;2024-02-15T02:14:03;1.43;;;0.33;;
62903;SDS011;49000;50.698;13.322;2024-02-15T02:16:29;0.30;;;0.20;;
62903;SDS011;49000;50.698;13.322;2024-02-15T02:18:58;0.97;;;0.27;;
62903;SDS011;49000;50.698;13.322;2024-02-15T02:21:27;0.50;;;0.37;;
62903;SDS011;49000;50.698;13.322;2024-02-15T02:23:57;0.30;;;0.30;;
62903;SDS011;49000;50.698;13.322;2024-02-15T02:26:23;2.10;;;0.30;;
62903;SDS011;49000;50.698;13.322;2024-02-15T02:28:50;0.93;;;0.30;;
62903;SDS011;49000;50.698;13.322;2024-02-15T02:31:18;0.47;;;0.30;;
62903;SDS011;49000;50.698;13.322;2024-02-15T02:33:51;0.30;;;0.30;;
62903;SDS011;49000;50.698;13.322;2024-02-15T02:36:18;0.33;;;0.30;;
62903;SDS011;49000;50.698;13.322;2024-02-15T02:38:44;0.20;;;0.20;;
62903;SDS011;49000;50.698;13.322;2024-02-15T02:41:14;0.30;;;0.30;;
62903;SDS011;49000;50.698;13.322;2024-02-15T02:43:40;0.40;;;0.30;;
62903;SDS011;49000;50.698;13.322;2024-02-15T02:46:06;0.70;;;0.47;;
62903;SDS011;49000;50.698;13.322;2024-02-15T02:48:35;0.50;;;0.30;;
62903;SDS011;49000;50.698;13.322;2024-02-15T02:51:01;0.60;;;0.40;;
62903;SDS011;49000;50.698;13.322;2024-02-15T02:53:27;0.40;;;0.30;;
62903;SDS011;49000;50.698;13.322;2024-02-15T02:55:53;0.70;;;0.50;;
62903;SDS011;49000;50.698;13.322;2024-02-15T02:58:21;0.50;;;0.40;;
62903;SDS011;49000;50.698;13.322;2024-02-15T03:00:47;0.63;;;0.50;;
62903;SDS011;49000;50.698;13.322;2024-02-15T03:03:14;0.40;;;0.30;;
62903;SDS011;49000;50.698;13.322;2024-02-15T03:05:40;0.60;;;0.50;;
62903;SDS011;49000;50.698;13.322;2024-02-15T03:08:06;1.70;;;0.50;;
62903;SDS011;49000;50.698;13.322;2024-02-15T03:10:33;0.70;;;0.50;;
62903;SDS011;49000;50.698;13.322;2024-02-15T03:12:59;0.50;;;0.40;;
62903;SDS011;49000;50.698;13.322;2024-02-15T03:15:24;0.47;;;0.30;;
62903;SDS011;49000;50.698;13.322;2024-02-15T03:17:50;0.30;;;0.30;;
62903;SDS011;49000;50.698;13.322;2024-02-15T03:20:16;0.33;;;0.30;;
62903;SDS011;49000;50.698;13.322;2024-02-15T03:22:58;0.40;;;0.33;;
62903;SDS011;49000;50.698;13.322;2024-02-15T03:25:24;0.40;;;0.30;;
62903;SDS011;49000;50.698;13.322;2024-02-15T03:27:54;0.50;;;0.40;;
62903;SDS011;49000;50.698;13.322;2024-02-15T03:30:22;0.47;;;0.47;;
62903;SDS011;49000;50.698;13.322;2024-02-15T03:32:49;0.37;;;0.37;;
62903;SDS011;49000;50.698;13.322;2024-02-15T03:35:16;0.40;;;0.37;;
62903;SDS011;49000;50.698;13.322;2024-02-15T03:37:42;0.67;;;0.50;;
62903;SDS011;49000;50.698;13.322;2024-02-15T03:40:08;0.50;;;0.40;;
62903;SDS011;49000;50.698;13.322;2024-02-15T03:42:34;0.40;;;0.40;;
62903;SDS011;49000;50.698;13.322;2024-02-15T03:45:05;0.20;;;0.20;;
62903;SDS011;49000;50.698;13.322;2024-02-15T03:47:32;1.80;;;0.60;;
62903;SDS011;49000;50.698;13.322;2024-02-15T03:49:58;0.30;;;0.30;;
62903;SDS011;49000;50.698;13.322;2024-02-15T03:52:24;0.50;;;0.40;;
62903;SDS011;49000;50.698;13.322;2024-02-15T03:54:49;0.60;;;0.40;;
62903;SDS011;49000;50.698;13.322;2024-02-15T03:57:15;0.33;;;0.30;;
62903;SDS011;49000;50.698;13.322;2024-02-15T03:59:42;0.50;;;0.40;;
62903;SDS011;49000;50.698;13.322;2024-02-15T04:02:07;0.50;;;0.40;;
62903;SDS011;49000;50.698;13.322;2024-02-15T04:04:37;0.50;;;0.50;;
62903;SDS011;49000;50.698;13.322;2024-02-15T04:07:07;0.60;;;0.50;;
62903;SDS011;49000;50.698;13.322;2024-02-15T04:09:32;0.97;;;0.70;;
62903;SDS011;49000;50.698;13.322;2024-02-15T04:12:00;0.97;;;0.63;;
62903;SDS011;49000;50.698;13.322;2024-02-15T04:14:26;0.90;;;0.80;;
62903;SDS011;49000;50.698;13.322;2024-02-15T04:16:51;0.77;;;0.50;;
62903;SDS011;49000;50.698;13.322;2024-02-15T04:19:17;0.70;;;0.60;;
62903;SDS011;49000;50.698;13.322;2024-02-15T04:21:44;0.73;;;0.43;;
62903;SDS011;49000;50.698;13.322;2024-02-15T04:24:11;0.50;;;0.40;;
62903;SDS011;49000;50.698;13.322;2024-02-15T04:26:37;0.63;;;0.60;;
62903;SDS011;49000;50.698;13.322;2024-02-15T04:29:02;1.03;;;0.47;;
62903;SDS011;49000;50.698;13.322;2024-02-15T04:31:28;1.67;;;0.40;;
62903;SDS011;49000;50.698;13.322;2024-02-15T04:33:54;0.40;;;0.40;;
62903;SDS011;49000;50.698;13.322;2024-02-15T04:36:20;0.47;;;0.40;;
62903;SDS011;49000;50.698;13.322;2024-02-15T04:38:51;0.70;;;0.60;;
62903;SDS011;49000;50.698;13.322;2024-02-15T04:41:17;0.20;;;0.20;;
62903;SDS011;49000;50.698;13.322;2024-02-15T04:43:48;0.30;;;0.30;;
62903;SDS011;49000;50.698;13.322;2024-02-15T04:46:14;0.37;;;0.37;;
62903;SDS011;49000;50.698;13.322;2024-02-15T04:48:40;0.60;;;0.30;;
62903;SDS011;49000;50.698;13.322;2024-02-15T04:51:09;0.20;;;0.10;;
62903;SDS011;49000;50.698;13.322;2024-02-15T04:53:36;0.27;;;0.20;;
62903;SDS011;49000;50.698;13.322;2024-02-15T04:56:03;0.40;;;0.30;;
62903;SDS011;49000;50.698;13.322;2024-02-15T04:58:34;0.23;;;0.23;;
62903;SDS011;49000;50.698;13.322;2024-02-15T05:01:01;0.33;;;0.30;;
62903;SDS011;49000;50.698;13.322;2024-02-15T05:03:29;0.30;;;0.20;;
62903;SDS011;49000;50.698;13.322;2024-02-15T05:05:56;0.40;;;0.30;;
62903;SDS011;49000;50.698;13.322;2024-02-15T05:08:22;0.97;;;0.40;;
62903;SDS011;49000;50.698;13.322;2024-02-15T05:10:47;0.30;;;0.30;;
62903;SDS011;49000;50.698;13.322;2024-02-15T05:13:13;0.30;;;0.30;;
62903;SDS011;49000;50.698;13.322;2024-02-15T05:15:39;0.50;;;0.33;;
62903;SDS011;49000;50.698;13.322;2024-02-15T05:18:04;0.40;;;0.40;;
62903;SDS011;49000;50.698;13.322;2024-02-15T05:20:33;0.37;;;0.30;;
62903;SDS011;49000;50.698;13.322;2024-02-15T05:22:59;0.80;;;0.63;;
62903;SDS011;49000;50.698;13.322;2024-02-15T05:25:24;1.90;;;1.17;;
62903;SDS011;49000;50.698;13.322;2024-02-15T05:27:52;0.97;;;0.80;;
62903;SDS011;49000;50.698;13.322;2024-02-15T05:30:21;1.00;;;0.90;;
62903;SDS011;49000;50.698;13.322;2024-02-15T05:32:47;1.17;;;0.80;;
62903;SDS011;49000;50.698;13.322;2024-02-15T05:35:14;1.50;;;1.10;;
62903;SDS011;49000;50.698;13.322;2024-02-15T05:37:40;0.43;;;0.40;;
62903;SDS011;49000;50.698;13.322;2024-02-15T05:40:06;1.37;;;0.50;;
62903;SDS011;49000;50.698;13.322;2024-02-15T05:42:32;0.60;;;0.40;;
62903;SDS011;49000;50.698;13.322;2024-02-15T05:45:14;0.70;;;0.40;;
62903;SDS011;49000;50.698;13.322;2024-02-15T05:47:57;0.90;;;0.60;;
62903;SDS011;49000;50.698;13.322;2024-02-15T05:50:23;10.40;;;5.60;;
62903;SDS011;49000;50.698;13.322;2024-02-15T05:52:49;35.67;;;18.40;;
62903;SDS011;49000;50.698;13.322;2024-02-15T05:55:16;23.33;;;11.73;;
62903;SDS011;49000;50.698;13.322;2024-02-15T05:57:43;74.90;;;29.90;;
62903;SDS011;49000;50.698;13.322;2024-02-15T06:00:08;49.70;;;21.93;;
62903;SDS011;49000;50.698;13.322;2024-02-15T06:02:34;38.77;;;17.17;;
62903;SDS011;49000;50.698;13.322;2024-02-15T06:05:00;14.57;;;8.20;;
62903;SDS011;49000;50.698;13.322;2024-02-15T06:07:28;29.27;;;13.07;;
62903;SDS011;49000;50.698;13.322;2024-02-15T06:09:56;12.07;;;6.47;;
62903;SDS011;49000;50.698;13.322;2024-02-15T06:12:22;17.60;;;7.87;;
62903;SDS011;49000;50.698;13.322;2024-02-15T06:14:48;7.90;;;3.77;;
62903;SDS011;49000;50.698;13.322;2024-02-15T06:17:13;14.30;;;6.87;;
62903;SDS011;49000;50.698;13.322;2024-02-15T06:19:39;14.00;;;6.40;;
62903;SDS011;49000;50.698;13.322;2024-02-15T06:22:04;10.63;;;5.50;;
62903;SDS011;49000;50.698;13.322;2024-02-15T06:24:30;15.80;;;7.10;;
62903;SDS011;49000;50.698;13.322;2024-02-15T06:26:56;5.60;;;3.03;;
62903;SDS011;49000;50.698;13.322;2024-02-15T06:29:24;3.27;;;2.20;;
62903;SDS011;49000;50.698;13.322;2024-02-15T06:32:09;1.63;;;1.43;;
62903;SDS011;49000;50.698;13.322;2024-02-15T06:35:09;1.10;;;0.80;;
62903;SDS011;49000;50.698;13.322;2024-02-15T06:37:53;0.80;;;0.70;;
62903;SDS011;49000;50.698;13.322;2024-02-15T06:40:38;2.63;;;0.80;;
62903;SDS011;49000;50.698;13.322;2024-02-15T06:43:03;1.00;;;0.90;;
62903;SDS011;49000;50.698;13.322;2024-02-15T06:45:29;1.53;;;1.20;;
62903;SDS011;49000;50.698;13.322;2024-02-15T06:47:57;2.27;;;0.90;;
62903;SDS011;49000;50.698;13.322;2024-02-15T06:50:23;1.00;;;0.80;;
62903;SDS011;49000;50.698;13.322;2024-02-15T06:52:48;0.73;;;0.53;;
62903;SDS011;49000;50.698;13.322;2024-02-15T06:55:16;0.87;;;0.70;;
62903;SDS011;49000;50.698;13.322;2024-02-15T06:57:44;0.50;;;0.50;;
62903;SDS011;49000;50.698;13.322;2024-02-15T07:00:09;0.90;;;0.70;;
62903;SDS011;49000;50.698;13.322;2024-02-15T07:02:40;1.00;;;0.70;;
62903;SDS011;49000;50.698;13.322;2024-02-15T07:05:06;1.10;;;0.97;;
62903;SDS011;49000;50.698;13.322;2024-02-15T07:07:32;0.90;;;0.80;;
62903;SDS011;49000;50.698;13.322;2024-02-15T07:09:59;1.40;;;0.73;;
62903;SDS011;49000;50.698;13.322;2024-02-15T07:12:27;1.93;;;0.70;;
62903;SDS011;49000;50.698;13.322;2024-02-15T07:14:53;1.17;;;0.90;;
62903;SDS011;49000;50.698;13.322;2024-02-15T07:17:19;0.97;;;0.87;;
62903;SDS011;49000;50.698;13.322;2024-02-15T07:19:45;1.40;;;1.10;;
62903;SDS011;49000;50.698;13.322;2024-02-15T07:22:14;1.10;;;0.97;;
62903;SDS011;49000;50.698;13.322;2024-02-15T07:24:40;1.00;;;0.90;;
62903;SDS011;49000;50.698;13.322;2024-02-15T07:27:05;0.80;;;0.80;;
62903;SDS011;49000;50.698;13.322;2024-02-15T07:29:31;0.73;;;0.70;;
62903;SDS011;49000;50.698;13.322;2024-02-15T07:31:57;1.50;;;1.03;;
62903;SDS011;49000;50.698;13.322;2024-02-15T07:34:25;1.17;;;0.90;;
62903;SDS011;49000;50.698;13.322;2024-02-15T07:36:51;0.80;;;0.70;;
62903;SDS011;49000;50.698;13.322;2024-02-15T07:39:16;1.53;;;1.13;;
62903;SDS011;49000;50.698;13.322;2024-02-15T07:41:48;1.50;;;1.13;;
62903;SDS011;49000;50.698;13.322;2024-02-15T07:44:15;1.40;;;1.10;;
62903;SDS011;49000;50.698;13.322;2024-02-15T07:46:42;2.10;;;1.50;;
62903;SDS011;49000;50.698;13.322;2024-02-15T07:49:07;1.57;;;1.30;;
62903;SDS011;49000;50.698;13.322;2024-02-15T07:51:33;1.83;;;1.30;;
62903;SDS011;49000;50.698;13.322;2024-02-15T07:53:58;2.23;;;1.33;;
62903;SDS011;49000;50.698;13.322;2024-02-15T07:56:24;2.20;;;1.37;;
62903;SDS011;49000;50.698;13.322;2024-02-15T07:58:50;2.43;;;1.73;;
62903;SDS011;49000;50.698;13.322;2024-02-15T08:01:17;2.47;;;1.63;;
62903;SDS011;49000;50.698;13.322;2024-02-15T08:03:42;1.87;;;1.40;;
62903;SDS011;49000;50.698;13.322;2024-02-15T08:06:11;0.80;;;0.80;;
62903;SDS011;49000;50.698;13.322;2024-02-15T08:08:38;1.20;;;0.90;;
62903;SDS011;49000;50.698;13.322;2024-02-15T08:11:06;1.00;;;0.80;;
62903;SDS011;49000;50.698;13.322;2024-02-15T08:13:39;2.10;;;0.80;;
62903;SDS011;49000;50.698;13.322;2024-02-15T08:16:15;1.53;;;1.00;;
62903;SDS011;49000;50.698;13.322;2024-02-15T08:18:41;1.50;;;1.33;;
62903;SDS011;49000;50.698;13.322;2024-02-15T08:21:11;1.57;;;1.27;;
62903;SDS011;49000;50.698;13.322;2024-02-15T08:23:37;1.30;;;1.20;;
62903;SDS011;49000;50.698;13.322;2024-02-15T08:26:02;1.80;;;0.93;;
62903;SDS011;49000;50.698;13.322;2024-02-15T08:28:28;1.20;;;1.00;;
62903;SDS011;49000;50.698;13.322;2024-02-15T08:30:54;1.50;;;1.03;;
62903;SDS011;49000;50.698;13.322;2024-02-15T08:33:23;1.97;;;0.90;;
62903;SDS011;49000;50.698;13.322;2024-02-15T08:35:49;1.27;;;0.70;;
62903;SDS011;49000;50.698;13.322;2024-02-15T08:38:15;1.07;;;0.77;;
62903;SDS011;49000;50.698;13.322;2024-02-15T08:40:41;1.00;;;0.90;;
62903;SDS011;49000;50.698;13.322;2024-02-15T08:43:09;2.23;;;1.10;;
62903;SDS011;49000;50.698;13.322;2024-02-15T08:45:34;1.83;;;1.40;;
62903;SDS011;49000;50.698;13.322;2024-02-15T08:48:00;1.60;;;1.20;;
62903;SDS011;49000;50.698;13.322;2024-02-15T08:50:29;1.60;;;1.23;;
62903;SDS011;49000;50.698;13.322;2024-02-15T08:52:55;2.37;;;1.20;;
62903;SDS011;49000;50.698;13.322;2024-02-15T08:55:21;2.00;;;1.20;;
62903;SDS011;49000;50.698;13.322;2024-02-15T08:57:51;2.20;;;1.47;;
62903;SDS011;49000;50.698;13.322;2024-02-15T09:00:17;1.83;;;1.20;;
62903;SDS011;49000;50.698;13.322;2024-02-15T09:02:43;2.20;;;1.20;;
62903;SDS011;49000;50.698;13.322;2024-02-15T09:05:09;1.20;;;1.00;;
62903;SDS011;49000;50.698;13.322;2024-02-15T09:07:35;0.87;;;0.80;;
62903;SDS011;49000;50.698;13.322;2024-02-15T09:10:01;0.80;;;0.60;;
62903;SDS011;49000;50.698;13.322;2024-02-15T09:12:28;0.90;;;0.70;;
62903;SDS011;49000;50.698;13.322;2024-02-15T09:14:53;0.90;;;0.60;;
62903;SDS011;49000;50.698;13.322;2024-02-15T09:17:19;1.07;;;0.73;;
62903;SDS011;49000;50.698;13.322;2024-02-15T09:19:46;0.80;;;0.57;;
62903;SDS011;49000;50.698;13.322;2024-02-15T09:22:14;1.83;;;1.00;;
62903;SDS011;49000;50.698;13.322;2024-02-15T09:24:40;1.63;;;1.03;;
62903;SDS011;49000;50.698;13.322;2024-02-15T09:27:07;1.60;;;1.30;;
62903;SDS011;49000;50.698;13.322;2024-02-15T09:29:32;1.60;;;1.40;;
62903;SDS011;49000;50.698;13.322;2024-02-15T09:31:58;1.37;;;1.00;;
62903;SDS011;49000;50.698;13.322;2024-02-15T09:34:27;1.43;;;0.97;;
62903;SDS011;49000;50.698;13.322;2024-02-15T09:36:52;1.67;;;0.90;;
62903;SDS011;49000;50.698;13.322;2024-02-15T09:39:17;1.27;;;0.80;;
62903;SDS011;49000;50.698;13.322;2024-02-15T09:41:43;1.20;;;0.90;;
62903;SDS011;49000;50.698;13.322;2024-02-15T09:44:09;2.00;;;0.90;;
62903;SDS011;49000;50.698;13.322;2024-02-15T09:46:35;1.23;;;1.00;;
62903;SDS011;49000;50.698;13.322;2024-02-15T09:49:04;3.83;;;1.53;;
62903;SDS011;49000;50.698;13.322;2024-02-15T09:51:32;2.17;;;1.40;;
62903;SDS011;49000;50.698;13.322;2024-02-15T09:53:58;3.50;;;1.77;;
62903;SDS011;49000;50.698;13.322;2024-02-15T09:56:26;2.33;;;1.93;;
62903;SDS011;49000;50.698;13.322;2024-02-15T09:58:53;4.57;;;2.00;;
62903;SDS011;49000;50.698;13.322;2024-02-15T10:01:22;2.37;;;1.40;;
62903;SDS011;49000;50.698;13.322;2024-02-15T10:03:49;2.20;;;1.80;;
62903;SDS011;49000;50.698;13.322;2024-02-15T10:06:17;2.60;;;1.63;;
62903;SDS011;49000;50.698;13.322;2024-02-15T10:08:44;1.30;;;0.73;;
62903;SDS011;49000;50.698;13.322;2024-02-15T10:11:12;0.80;;;0.60;;
62903;SDS011;49000;50.698;13.322;2024-02-15T10:13:37;1.40;;;0.83;;
62903;SDS011;49000;50.698;13.322;2024-02-15T10:16:13;2.20;;;1.60;;
62903;SDS011;49000;50.698;13.322;2024-02-15T10:18:43;1.97;;;1.27;;
62903;SDS011;49000;50.698;13.322;2024-02-15T10:21:09;1.20;;;0.80;;
62903;SDS011;49000;50.698;13.322;2024-02-15T10:23:36;1.03;;;0.67;;
62903;SDS011;49000;50.698;13.322;2024-02-15T10:26:07;0.97;;;0.60;;
62903;SDS011;49000;50.698;13.322;2024-02-15T10:28:44;1.57;;;0.57;;
62903;SDS011;49000;50.698;13.322;2024-02-15T10:31:09;1.20;;;0.80;;
62903;SDS011;49000;50.698;13.322;2024-02-15T10:33:38;1.47;;;0.90;;
62903;SDS011;49000;50.698;13.322;2024-02-15T10:36:04;0.90;;;0.70;;
62903;SDS011;49000;50.698;13.322;2024-02-15T10:38:33;1.03;;;0.63;;
62903;SDS011;49000;50.698;13.322;2024-02-15T10:41:04;0.40;;;0.40;;
62903;SDS011;49000;50.698;13.322;2024-02-15T10:43:31;0.50;;;0.50;;
62903;SDS011;49000;50.698;13.322;2024-02-15T10:45:58;0.40;;;0.40;;
62903;SDS011;49000;50.698;13.322;2024-02-15T10:48:25;0.97;;;0.40;;
62903;SDS011;49000;50.698;13.322;2024-02-15T10:50:53;0.40;;;0.40;;
62903;SDS011;49000;50.698;13.322;2024-02-15T10:53:27;0.77;;;0.50;;
62903;SDS011;49000;50.698;13.322;2024-02-15T10:58:50;0.60;;;0.40;;
62903;SDS011;49000;50.698;13.322;2024-02-15T11:01:20;0.97;;;0.70;;
62903;SDS011;49000;50.698;13.322;2024-02-15T11:03:51;0.73;;;0.50;;
62903;SDS011;49000;50.698;13.322;2024-02-15T11:06:26;0.47;;;0.43;;
62903;SDS011;49000;50.698;13.322;2024-02-15T11:08:52;0.70;;;0.60;;
62903;SDS011;49000;50.698;13.322;2024-02-15T11:11:18;1.03;;;0.83;;
62903;SDS011;49000;50.698;13.322;2024-02-15T11:13:48;0.80;;;0.73;;
62903;SDS011;49000;50.698;13.322;2024-02-15T11:19:05;0.70;;;0.70;;
62903;SDS011;49000;50.698;13.322;2024-02-15T11:24:25;0.70;;;0.70;;
62903;SDS011;49000;50.698;13.322;2024-02-15T11:27:04;0.70;;;0.63;;
62903;SDS011;49000;50.698;13.322;2024-02-15T11:29:50;0.80;;;0.67;;
62903;SDS011;49000;50.698;13.322;2024-02-15T11:35:05;0.87;;;0.50;;
62903;SDS011;49000;50.698;13.322;2024-02-15T11:40:22;0.60;;;0.60;;
62903;SDS011;49000;50.698;13.322;2024-02-15T11:42:59;0.77;;;0.70;;
62903;SDS011;49000;50.698;13.322;2024-02-15T11:45:25;1.13;;;0.63;;
62903;SDS011;49000;50.698;13.322;2024-02-15T11:47:54;0.77;;;0.70;;
62903;SDS011;49000;50.698;13.322;2024-02-15T11:50:21;1.07;;;0.73;;
62903;SDS011;49000;50.698;13.322;2024-02-15T11:52:48;0.70;;;0.60;;
62903;SDS011;49000;50.698;13.322;2024-02-15T11:55:17;0.90;;;0.47;;
62903;SDS011;49000;50.698;13.322;2024-02-15T11:57:53;1.13;;;0.50;;
62903;SDS011;49000;50.698;13.322;2024-02-15T12:00:25;0.40;;;0.30;;
62903;SDS011;49000;50.698;13.322;2024-02-15T12:03:10;0.50;;;0.30;;
62903;SDS011;49000;50.698;13.322;2024-02-15T12:05:57;0.40;;;0.30;;
62903;SDS011;49000;50.698;13.322;2024-02-15T12:08:44;0.50;;;0.40;;
62903;SDS011;49000;50.698;13.322;2024-02-15T12:11:30;0.67;;;0.40;;
62903;SDS011;49000;50.698;13.322;2024-02-15T12:14:15;0.70;;;0.57;;
62903;SDS011;49000;50.698;13.322;2024-02-15T12:17:02;0.50;;;0.50;;
62903;SDS011;49000;50.698;13.322;2024-02-15T12:19:50;1.47;;;0.50;;
62903;SDS011;49000;50.698;13.322;2024-02-15T12:25:02;0.50;;;0.40;;
62903;SDS011;49000;50.698;13.322;2024-02-15T12:27:43;0.70;;;0.47;;
62903;SDS011;49000;50.698;13.322;2024-02-15T12:30:12;0.90;;;0.50;;
62903;SDS011;49000;50.698;13.322;2024-02-15T12:32:40;0.50;;;0.40;;
62903;SDS011;49000;50.698;13.322;2024-02-15T12:35:12;0.50;;;0.40;;
62903;SDS011;49000;50.698;13.322;2024-02-15T12:37:41;0.60;;;0.50;;
62903;SDS011;49000;50.698;13.322;2024-02-15T12:40:12;0.70;;;0.53;;
62903;SDS011;49000;50.698;13.322;2024-02-15T12:42:45;0.40;;;0.40;;
62903;SDS011;49000;50.698;13.322;2024-02-15T12:45:15;0.70;;;0.53;;
62903;SDS011;49000;50.698;13.322;2024-02-15T12:47:45;0.70;;;0.60;;
62903;SDS011;49000;50.698;13.322;2024-02-15T12:50:13;1.10;;;0.50;;
62903;SDS011;49000;50.698;13.322;2024-02-15T12:52:39;1.30;;;0.60;;
62903;SDS011;49000;50.698;13.322;2024-02-15T12:55:09;0.83;;;0.50;;
62903;SDS011;49000;50.698;13.322;2024-02-15T12:57:38;1.00;;;0.70;;
62903;SDS011;49000;50.698;13.322;2024-02-15T13:00:13;0.70;;;0.70;;
62903;SDS011;49000;50.698;13.322;2024-02-15T13:02:43;1.07;;;0.80;;
62903;SDS011;49000;50.698;13.322;2024-02-15T13:05:16;0.80;;;0.80;;
62903;SDS011;49000;50.698;13.322;2024-02-15T13:07:46;0.60;;;0.57;;
62903;SDS011;49000;50.698;13.322;2024-02-15T13:10:12;1.53;;;0.60;;
62903;SDS011;49000;50.698;13.322;2024-02-15T13:12:39;0.73;;;0.57;;
62903;SDS011;49000;50.698;13.322;2024-02-15T13:15:12;0.87;;;0.87;;
62903;SDS011;49000;50.698;13.322;2024-02-15T13:17:52;1.90;;;0.60;;
62903;SDS011;49000;50.698;13.322;2024-02-15T13:20:19;1.07;;;0.97;;
62903;SDS011;49000;50.698;13.322;2024-02-15T13:22:52;0.87;;;0.80;;
62903;SDS011;49000;50.698;13.322;2024-02-15T13:25:17;1.33;;;0.70;;
62903;SDS011;49000;50.698;13.322;2024-02-15T13:27:46;0.70;;;0.70;;
62903;SDS011;49000;50.698;13.322;2024-02-15T13:30:11;0.70;;;0.60;;
62903;SDS011;49000;50.698;13.322;2024-02-15T13:32:38;0.60;;;0.60;;
62903;SDS011;49000;50.698;13.322;2024-02-15T13:35:06;0.50;;;0.50;;
62903;SDS011;49000;50.698;13.322;2024-02-15T13:37:39;1.30;;;0.60;;
62903;SDS011;49000;50.698;13.322;2024-02-15T13:40:07;2.17;;;0.70;;
62903;SDS011;49000;50.698;13.322;2024-02-15T13:42:42;0.77;;;0.70;;
62903;SDS011;49000;50.698;13.322;2024-02-15T13:45:17;0.80;;;0.60;;
62903;SDS011;49000;50.698;13.322;2024-02-15T13:47:50;0.70;;;0.50;;
62903;SDS011;49000;50.698;13.322;2024-02-15T13:50:16;1.17;;;0.70;;
62903;SDS011;49000;50.698;13.322;2024-02-15T13:52:42;1.23;;;0.50;;
62903;SDS011;49000;50.698;13.322;2024-02-15T13:55:12;0.83;;;0.60;;
62903;SDS011;49000;50.698;13.322;2024-02-15T13:57:42;1.03;;;0.40;;
62903;SDS011;49000;50.698;13.322;2024-02-15T14:00:13;0.77;;;0.50;;
62903;SDS011;49000;50.698;13.322;2024-02-15T14:02:54;0.60;;;0.40;;
62903;SDS011;49000;50.698;13.322;2024-02-15T14:05:22;0.40;;;0.40;;
62903;SDS011;49000;50.698;13.322;2024-02-15T14:07:51;0.30;;;0.30;;
62903;SDS011;49000;50.698;13.322;2024-02-15T14:10:20;0.30;;;0.30;;
62903;SDS011;49000;50.698;13.322;2024-02-15T14:12:49;0.93;;;0.40;;
62903;SDS011;49000;50.698;13.322;2024-02-15T14:15:36;1.23;;;0.40;;
62903;SDS011;49000;50.698;13.322;2024-02-15T14:18:04;0.30;;;0.30;;
62903;SDS011;49000;50.698;13.322;2024-02-15T14:20:30;0.40;;;0.30;;
62903;SDS011;49000;50.698;13.322;2024-02-15T14:22:55;0.30;;;0.30;;
62903;SDS011;49000;50.698;13.322;2024-02-15T14:25:24;0.60;;;0.50;;
62903;SDS011;49000;50.698;13.322;2024-02-15T14:27:56;0.40;;;0.20;;
62903;SDS011;49000;50.698;13.322;2024-02-15T14:30:22;0.63;;;0.40;;
62903;SDS011;49000;50.698;13.322;2024-02-15T14:33:06;0.40;;;0.40;;
62903;SDS011;49000;50.698;13.322;2024-02-15T14:35:36;0.23;;;0.23;;
62903;SDS011;49000;50.698;13.322;2024-02-15T14:38:04;0.50;;;0.30;;
62903;SDS011;49000;50.698;13.322;2024-02-15T14:40:33;0.50;;;0.40;;
62903;SDS011;49000;50.698;13.322;2024-02-15T14:43:02;0.37;;;0.37;;
62903;SDS011;49000;50.698;13.322;2024-02-15T14:45:31;0.40;;;0.30;;
62903;SDS011;49000;50.698;13.322;2024-02-15T14:47:58;2.13;;;0.30;;
62903;SDS011;49000;50.698;13.322;2024-02-15T14:50:24;0.67;;;0.30;;
62903;SDS011;49000;50.698;13.322;2024-02-15T14:52:50;0.70;;;0.40;;
62903;SDS011;49000;50.698;13.322;2024-02-15T14:55:18;0.50;;;0.40;;